createdAt,value
2022-12-04T00:01:10.438Z,97936.38
2022-12-04T00:05:12.427Z,97925.78
2022-12-04T00:09:14.568Z,97925.56
2022-12-04T00:13:16.721Z,97935.63
2022-12-04T00:17:18.965Z,97935.63
2022-12-04T00:21:23.096Z,97939.91
2022-12-04T00:25:25.156Z,97929.81
2022-12-04T00:29:27.398Z,97921.31
2022-12-04T00:33:29.658Z,97920.84
2022-12-04T00:37:33.490Z,97921.88
2022-12-04T00:41:35.868Z,97920.81
2022-12-04T00:45:38.350Z,97920.81
2022-12-04T00:49:40.388Z,97928.50
2022-12-04T00:53:43.175Z,97946.88
2022-12-04T00:57:45.425Z,97933.81
2022-12-04T01:01:47.492Z,97926.91
2022-12-04T01:05:49.738Z,97925.03
2022-12-04T01:09:52.000Z,97928.22
2022-12-04T01:13:54.514Z,97930.06
2022-12-04T01:17:56.703Z,97942.53
2022-12-04T01:21:58.848Z,97919.41
2022-12-04T01:26:00.940Z,97904.25
2022-12-04T01:30:03.529Z,97894.91
2022-12-04T01:34:05.666Z,97920.16
2022-12-04T01:38:07.704Z,97937.47
2022-12-04T01:42:13.710Z,97924.94
2022-12-04T01:46:15.930Z,97928.06
2022-12-04T01:50:18.895Z,97929.66
2022-12-04T01:54:28.572Z,97926.47
2022-12-04T01:58:35.874Z,97919.28
2022-12-04T02:02:45.043Z,97920.03
2022-12-04T02:06:47.560Z,97912.66
2022-12-04T02:11:01.151Z,97915.56
2022-12-04T02:15:09.860Z,97915.31
2022-12-04T02:19:39.578Z,97910.03
2022-12-04T02:23:41.577Z,97914.53
2022-12-04T02:27:47.435Z,97915.06
2022-12-04T02:32:00.075Z,97905.53
2022-12-04T02:36:16.606Z,97912.41
2022-12-04T02:40:28.084Z,97920.91
2022-12-04T02:44:35.625Z,97927.06
2022-12-04T02:48:41.451Z,97932.94
2022-12-04T02:52:51.582Z,97930.31
2022-12-04T02:56:54.738Z,97924.50
2022-12-04T03:01:00.410Z,97920.03
2022-12-04T03:05:10.708Z,97918.47
2022-12-04T03:09:28.557Z,97914.44
2022-12-04T03:13:42.004Z,97919.50
2022-12-04T03:18:03.556Z,97921.31
2022-12-04T03:22:10.970Z,97916.56
2022-12-04T03:26:18.660Z,97921.88
2022-12-04T03:30:22.500Z,97925.56
2022-12-04T03:34:31.293Z,97928.22
2022-12-04T03:38:38.457Z,97914.03
2022-12-04T03:42:48.273Z,97913.75
2022-12-04T03:47:06.547Z,97922.28
2022-12-04T03:51:25.838Z,97921.47
2022-12-04T03:55:35.261Z,97910.31
2022-12-04T03:59:55.252Z,97918.00
2022-12-04T04:04:00.222Z,97912.66
2022-12-04T04:08:22.430Z,97912.16
2022-12-04T04:12:29.256Z,97916.34
2022-12-04T04:16:54.187Z,97920.81
2022-12-04T04:21:18.288Z,97917.88
2022-12-04T04:25:25.294Z,97928.22
2022-12-04T04:29:28.598Z,97924.22
2022-12-04T04:33:32.645Z,97925.78
2022-12-04T04:37:44.552Z,97912.75
2022-12-04T04:42:03.729Z,97918.88
2022-12-04T04:46:08.302Z,97917.00
2022-12-04T04:50:12.460Z,97908.22
2022-12-04T04:54:16.761Z,97906.09
2022-12-04T04:58:21.971Z,97921.28
2022-12-04T05:02:26.725Z,97914.91
2022-12-04T05:06:28.807Z,97928.50
2022-12-04T05:10:30.846Z,97930.16
2022-12-04T05:14:34.995Z,97929.88
2022-12-04T05:18:37.578Z,97939.16
2022-12-04T05:22:39.693Z,97935.69
2022-12-04T05:26:41.872Z,97934.34
2022-12-04T05:30:43.985Z,97937.00
2022-12-04T05:34:50.407Z,97940.16
2022-12-04T05:38:52.845Z,97943.84
2022-12-04T05:42:54.926Z,97952.13
2022-12-04T05:46:57.043Z,97956.59
2022-12-04T05:50:59.510Z,97966.22
2022-12-04T05:55:01.908Z,97979.75
2022-12-04T05:59:04.181Z,97995.22
2022-12-04T06:03:06.514Z,97995.56
2022-12-04T06:07:09.924Z,98010.72
2022-12-04T06:11:15.332Z,98014.69
2022-12-04T06:19:56.336Z,98036.50
2022-12-04T06:23:58.912Z,98047.94
2022-12-04T06:28:00.953Z,98041.78
2022-12-04T06:32:03.677Z,98047.66
2022-12-04T06:36:09.135Z,98051.41
2022-12-04T06:40:11.461Z,98063.63
2022-12-04T06:44:14.808Z,98074.28
2022-12-04T06:48:23.832Z,98070.56
2022-12-04T06:52:25.968Z,98080.16
2022-12-04T06:56:31.047Z,98078.03
2022-12-04T07:00:33.530Z,98090.50
2022-12-04T07:04:35.654Z,98099.84
2022-12-04T07:08:37.907Z,98105.44
2022-12-04T07:12:40.021Z,98104.69
2022-12-04T07:16:42.951Z,98106.00
2022-12-04T07:20:45.059Z,98110.00
2022-12-04T07:24:47.194Z,98120.91
2022-12-04T07:28:49.580Z,98125.94
2022-12-04T07:32:51.937Z,98132.81
2022-12-04T07:36:54.021Z,98135.75
2022-12-04T07:40:57.262Z,98142.41
2022-12-04T07:44:59.577Z,98142.91
2022-12-04T07:49:01.879Z,98149.84
2022-12-04T07:53:03.917Z,98152.19
2022-12-04T07:57:06.002Z,98160.91
2022-12-04T08:01:14.165Z,98168.50
2022-12-04T08:05:16.772Z,98172.09
2022-12-04T08:09:18.885Z,98163.19
2022-12-04T08:13:20.938Z,98168.78
2022-12-04T08:17:23.163Z,98182.34
2022-12-04T08:21:28.030Z,98181.09
2022-12-04T08:25:30.057Z,98192.38
2022-12-04T08:29:32.182Z,98190.50
2022-12-04T08:33:34.791Z,98213.97
2022-12-04T08:37:36.957Z,98205.50
2022-12-04T08:41:39.569Z,98212.66
2022-12-04T08:45:42.133Z,98225.19
2022-12-04T08:49:44.645Z,98240.16
2022-12-04T08:53:46.983Z,98248.44
2022-12-04T08:57:52.083Z,98259.38
2022-12-04T09:01:54.414Z,98257.19
2022-12-04T09:05:59.468Z,98246.25
2022-12-04T09:10:01.842Z,98256.84
2022-12-04T09:14:04.359Z,98267.75
2022-12-04T09:18:07.366Z,98273.63
2022-12-04T09:22:09.579Z,98272.56
2022-12-04T09:26:24.450Z,98281.56
2022-12-04T09:30:26.812Z,98283.94
2022-12-04T09:34:29.026Z,98281.19
2022-12-04T09:38:31.614Z,98281.69
2022-12-04T09:42:36.855Z,98287.78
2022-12-04T09:46:50.950Z,98284.50
2022-12-04T09:50:54.849Z,98295.59
2022-12-04T09:54:59.015Z,98292.25
2022-12-04T09:59:32.036Z,98296.16
2022-12-04T10:03:34.395Z,98301.19
2022-12-04T10:07:42.393Z,98303.97
2022-12-04T10:12:10.441Z,98310.50
2022-12-04T10:16:15.962Z,98307.34
2022-12-04T10:20:24.571Z,98311.97
2022-12-04T10:24:48.504Z,98311.75
2022-12-04T10:28:58.551Z,98316.31
2022-12-04T10:33:17.008Z,98319.19
2022-12-04T10:37:19.615Z,98311.13
2022-12-04T10:41:29.556Z,98314.28
2022-12-04T10:45:31.987Z,98313.13
2022-12-04T10:49:37.350Z,98304.19
2022-12-04T10:53:39.476Z,98294.69
2022-12-04T10:57:46.859Z,98302.03
2022-12-04T11:01:49.858Z,98297.66
2022-12-04T11:05:58.378Z,98300.00
2022-12-04T11:10:24.424Z,98301.97
2022-12-04T11:14:26.997Z,98287.34
2022-12-04T11:18:47.777Z,98286.34
2022-12-04T11:22:57.665Z,98289.56
2022-12-04T11:27:01.019Z,98302.13
2022-12-04T11:31:05.428Z,98308.44
2022-12-04T11:35:13.550Z,98304.09
2022-12-04T11:39:20.671Z,98302.16
2022-12-04T11:43:26.717Z,98308.22
2022-12-04T11:47:33.441Z,98301.34
2022-12-04T11:52:01.767Z,98314.22
2022-12-04T11:56:22.055Z,98323.16
2022-12-04T12:00:24.490Z,98329.56
2022-12-04T12:05:00.497Z,98331.13
2022-12-04T12:09:25.953Z,98337.94
2022-12-04T12:13:38.084Z,98345.06
2022-12-04T12:17:47.040Z,98342.38
2022-12-04T12:22:26.262Z,98359.19
2022-12-04T12:27:00.628Z,98359.03
2022-12-04T12:31:21.826Z,98358.84
2022-12-04T12:35:40.179Z,98353.97
2022-12-04T12:39:50.244Z,98355.56
2022-12-04T12:44:02.964Z,98348.06
2022-12-04T12:48:16.628Z,98346.78
2022-12-04T12:52:35.701Z,98353.28
2022-12-04T12:56:57.735Z,98353.28
2022-12-04T13:06:37.956Z,98361.91
2022-12-04T13:11:06.664Z,98360.81
2022-12-04T13:15:14.958Z,98374.91
2022-12-04T13:19:43.641Z,98373.13
2022-12-04T13:23:53.137Z,98366.47
2022-12-04T13:28:36.540Z,98365.03
2022-12-04T13:32:53.741Z,98371.53
2022-12-04T13:37:16.639Z,98385.00
2022-12-04T13:41:21.575Z,98372.84
2022-12-04T13:45:29.597Z,98383.47
2022-12-04T13:49:38.340Z,98379.06
2022-12-04T13:53:42.832Z,98377.25
2022-12-04T13:57:56.938Z,98376.03
2022-12-04T14:02:24.522Z,98377.38
2022-12-04T14:06:32.448Z,98385.88
2022-12-04T14:10:38.478Z,98390.34
2022-12-04T14:14:52.811Z,98401.75
2022-12-04T14:18:58.129Z,98397.47
2022-12-04T14:23:27.888Z,98394.47
2022-12-04T14:27:35.027Z,98402.44
2022-12-04T14:31:40.869Z,98406.19
2022-12-04T14:35:57.637Z,98411.06
2022-12-04T14:40:01.771Z,98425.22
2022-12-04T14:44:03.968Z,98427.25
2022-12-04T14:48:05.967Z,98427.59
2022-12-04T14:52:40.586Z,98436.94
2022-12-04T14:57:27.813Z,98443.66
2022-12-04T15:01:37.644Z,98441.88
2022-12-04T15:05:41.041Z,98439.88
2022-12-04T15:10:16.271Z,98453.16
2022-12-04T15:14:18.480Z,98452.16
2022-12-04T15:18:20.962Z,98453.28
2022-12-04T15:22:28.482Z,98461.38
2022-12-04T15:26:30.702Z,98460.09
2022-12-04T15:30:36.612Z,98462.53
2022-12-04T15:34:43.336Z,98475.13
2022-12-04T15:38:48.364Z,98477.88
2022-12-04T15:42:51.174Z,98483.41
2022-12-04T15:46:58.683Z,98470.91
2022-12-04T15:51:05.468Z,98473.63
2022-12-04T15:55:09.356Z,98481.72
2022-12-04T15:59:24.644Z,98487.81
2022-12-04T16:03:46.231Z,98501.13
2022-12-04T16:07:54.456Z,98496.09
2022-12-04T16:12:17.896Z,98500.72
2022-12-04T16:16:22.437Z,98501.81
2022-12-04T16:20:25.108Z,98512.00
2022-12-04T16:24:27.632Z,98518.69
2022-12-04T16:28:29.810Z,98521.59
2022-12-04T16:32:33.922Z,98533.09
2022-12-04T16:36:36.037Z,98529.09
2022-12-04T16:40:38.151Z,98537.88
2022-12-04T16:44:40.487Z,98539.47
2022-12-04T16:48:43.467Z,98541.88
2022-12-04T16:52:45.854Z,98548.25
2022-12-04T16:56:47.937Z,98552.00
2022-12-04T17:00:54.118Z,98549.88
2022-12-04T17:04:57.999Z,98550.41
2022-12-04T17:09:00.420Z,98559.47
2022-12-04T17:13:02.530Z,98558.41
2022-12-04T17:17:04.721Z,98563.22
2022-12-04T17:21:08.867Z,98570.41
2022-12-04T17:25:12.126Z,98567.75
2022-12-04T17:29:14.262Z,98568.56
2022-12-04T17:33:16.539Z,98569.91
2022-12-04T17:37:25.625Z,98573.88
2022-12-04T17:41:28.242Z,98572.56
2022-12-04T17:45:30.640Z,98579.22
2022-12-04T17:49:32.880Z,98578.94
2022-12-04T17:53:35.437Z,98576.28
2022-12-04T17:57:37.594Z,98591.72
2022-12-04T18:01:39.729Z,98589.59
2022-12-04T18:05:41.791Z,98593.31
2022-12-04T18:09:43.936Z,98603.19
2022-12-04T18:13:47.061Z,98610.31
2022-12-04T18:17:49.206Z,98622.22
2022-12-04T18:21:51.741Z,98636.78
2022-12-04T18:25:58.666Z,98632.88
2022-12-04T18:30:01.733Z,98638.97
2022-12-04T18:34:06.257Z,98645.59
2022-12-04T18:38:08.331Z,98644.28
2022-12-04T18:42:10.423Z,98651.75
2022-12-04T18:46:14.871Z,98652.69
2022-12-04T18:50:17.754Z,98654.91
2022-12-04T18:54:22.342Z,98662.91
2022-12-04T18:58:24.527Z,98660.56
2022-12-04T19:02:26.825Z,98669.91
2022-12-04T19:06:34.761Z,98652.31
2022-12-04T19:10:36.856Z,98665.38
2022-12-04T19:14:40.045Z,98660.56
2022-12-04T19:18:45.217Z,98657.06
2022-12-04T19:22:47.607Z,98661.84
2022-12-04T19:26:49.787Z,98658.13
2022-12-04T19:30:51.973Z,98657.06
2022-12-04T19:34:54.149Z,98659.59
2022-12-04T19:39:12.515Z,98655.41
2022-12-04T19:43:15.092Z,98653.50
2022-12-04T19:47:18.144Z,98663.00
2022-12-04T19:51:22.130Z,98663.81
2022-12-04T19:55:24.464Z,98675.22
2022-12-04T19:59:41.767Z,98677.38
2022-12-04T20:03:47.017Z,98673.13
2022-12-04T20:07:50.075Z,98684.91
2022-12-04T20:11:52.750Z,98693.31
2022-12-04T20:15:55.593Z,98701.38
2022-12-04T20:19:57.992Z,98701.78
2022-12-04T20:24:06.438Z,98693.59
2022-12-04T20:28:14.257Z,98693.34
2022-12-04T20:32:16.755Z,98688.34
2022-12-04T20:36:23.872Z,98696.88
2022-12-04T20:40:30.510Z,98706.75
2022-12-04T20:44:38.083Z,98696.63
2022-12-04T20:48:49.473Z,98680.66
2022-12-04T20:52:52.225Z,98694.72
2022-12-04T20:56:54.676Z,98689.31
2022-12-04T21:00:56.977Z,98693.06
2022-12-04T21:04:59.831Z,98699.00
2022-12-04T21:09:07.582Z,98703.25
2022-12-04T21:13:28.348Z,98707.50
2022-12-04T21:17:31.377Z,98713.38
2022-12-04T21:21:36.026Z,98715.56
2022-12-04T21:25:38.419Z,98714.25
2022-12-04T21:29:40.686Z,98712.94
2022-12-04T21:33:43.231Z,98707.16
2022-12-04T21:37:45.367Z,98709.22
2022-12-04T21:42:06.239Z,98711.06
2022-12-04T21:46:09.592Z,98721.16
2022-12-04T21:50:12.035Z,98726.31
2022-12-04T21:54:14.338Z,98711.16
2022-12-04T21:58:16.535Z,98718.88
2022-12-04T22:02:19.074Z,98717.56
2022-12-04T22:06:22.330Z,98717.81
2022-12-04T22:10:24.971Z,98713.91
2022-12-04T22:14:27.423Z,98710.97
2022-12-04T22:18:30.463Z,98706.63
2022-12-04T22:22:34.637Z,98700.44
2022-12-04T22:26:37.804Z,98697.78
2022-12-04T22:30:41.569Z,98695.63
2022-12-04T22:34:43.768Z,98704.84
2022-12-04T22:39:08.876Z,98695.63
2022-12-04T22:43:12.569Z,98698.72
2022-12-04T22:47:15.714Z,98705.44
2022-12-04T22:51:22.164Z,98711.34
2022-12-04T22:55:25.448Z,98709.16
2022-12-04T22:59:28.201Z,98707.63
2022-12-04T23:03:30.953Z,98707.38
2022-12-04T23:07:33.451Z,98705.75
2022-12-04T23:11:36.237Z,98699.19
2022-12-04T23:15:39.395Z,98696.59
2022-12-04T23:19:41.876Z,98694.72
2022-12-04T23:23:45.977Z,98714.72
2022-12-04T23:27:49.425Z,98702.00
2022-12-04T23:31:51.965Z,98700.41
2022-12-04T23:35:57.351Z,98697.75
2022-12-04T23:40:00.208Z,98699.91
2022-12-04T23:44:03.123Z,98693.78
2022-12-04T23:48:05.794Z,98697.53
2022-12-04T23:52:08.478Z,98695.94
2022-12-04T23:56:17.491Z,98689.69
